createdAt,value
2022-12-06T00:01:15.637Z,36.85
2022-12-06T00:03:44.192Z,32.22
2022-12-06T00:06:13.452Z,36.80
2022-12-06T00:08:40.681Z,30.40
2022-12-06T00:11:10.309Z,33.45
2022-12-06T00:13:37.564Z,40.97
2022-12-06T00:16:13.921Z,36.13
2022-12-06T00:18:42.527Z,37.97
2022-12-06T00:21:21.912Z,34.88
2022-12-06T00:23:54.942Z,36.28
2022-12-06T00:26:22.231Z,36.13
2022-12-06T00:28:51.583Z,38.13
2022-12-06T00:31:20.232Z,31.70
2022-12-06T00:33:49.456Z,36.05
2022-12-06T00:36:21.395Z,32.80
2022-12-06T00:38:48.768Z,37.33
2022-12-06T00:41:25.440Z,37.10
2022-12-06T00:43:53.032Z,35.75
2022-12-06T00:46:22.927Z,42.92
2022-12-06T00:48:50.448Z,38.60
2022-12-06T00:51:18.616Z,38.58
2022-12-06T00:53:46.039Z,38.13
2022-12-06T00:56:13.170Z,34.22
2022-12-06T00:58:40.473Z,41.08
2022-12-06T01:01:20.397Z,40.75
2022-12-06T01:03:51.388Z,33.92
2022-12-06T01:06:20.572Z,39.85
2022-12-06T01:08:47.213Z,35.83
2022-12-06T01:11:15.376Z,35.47
2022-12-06T01:13:43.099Z,34.78
2022-12-06T01:16:16.324Z,34.13
2022-12-06T01:18:44.494Z,36.03
2022-12-06T01:21:16.615Z,35.55
2022-12-06T01:23:45.235Z,33.22
2022-12-06T01:26:32.714Z,37.35
2022-12-06T01:29:00.150Z,31.33
2022-12-06T01:31:30.842Z,31.42
2022-12-06T01:34:02.464Z,32.50
2022-12-06T01:36:29.152Z,32.28
2022-12-06T01:38:58.830Z,32.17
2022-12-06T01:41:26.908Z,31.13
2022-12-06T01:43:54.798Z,39.53
2022-12-06T01:46:27.491Z,32.92
2022-12-06T01:48:59.930Z,36.75
2022-12-06T01:51:26.737Z,31.60
2022-12-06T01:53:54.713Z,32.03
2022-12-06T01:56:22.126Z,31.83
2022-12-06T01:58:51.884Z,30.13
2022-12-06T02:01:18.733Z,30.02
2022-12-06T02:03:48.071Z,30.40
2022-12-06T02:06:16.569Z,31.50
2022-12-06T02:08:44.297Z,34.97
2022-12-06T02:11:10.962Z,30.17
2022-12-06T02:13:38.560Z,29.85
2022-12-06T02:16:38.051Z,27.67
2022-12-06T02:19:35.042Z,29.38
2022-12-06T02:22:28.265Z,31.27
2022-12-06T02:25:11.595Z,26.85
2022-12-06T02:27:56.177Z,30.40
2022-12-06T02:30:43.094Z,29.48
2022-12-06T02:33:21.416Z,29.05
2022-12-06T02:36:22.423Z,30.55
2022-12-06T02:38:51.350Z,29.17
2022-12-06T02:41:38.103Z,27.98
2022-12-06T02:44:08.277Z,27.58
2022-12-06T02:46:37.989Z,26.23
2022-12-06T02:49:07.446Z,26.95
2022-12-06T02:51:37.126Z,26.70
2022-12-06T02:54:08.497Z,27.17
2022-12-06T02:56:35.704Z,30.05
2022-12-06T02:59:02.438Z,27.63
2022-12-06T03:01:32.786Z,29.55
2022-12-06T03:04:17.862Z,28.83
2022-12-06T03:07:00.624Z,26.45
2022-12-06T03:09:54.868Z,26.70
2022-12-06T03:12:31.625Z,29.98
2022-12-06T03:14:58.218Z,25.27
2022-12-06T03:17:36.456Z,23.80
2022-12-06T03:20:14.488Z,26.48
2022-12-06T03:22:46.709Z,27.13
2022-12-06T03:25:15.040Z,25.67
2022-12-06T03:27:43.740Z,28.67
2022-12-06T03:30:12.753Z,25.20
2022-12-06T03:32:43.538Z,27.58
2022-12-06T03:35:13.395Z,24.58
2022-12-06T03:37:43.438Z,28.17
2022-12-06T03:40:23.419Z,25.58
2022-12-06T03:42:50.883Z,25.13
2022-12-06T03:45:18.896Z,24.48
2022-12-06T03:48:16.857Z,24.73
2022-12-06T03:50:58.527Z,30.48
2022-12-06T03:53:26.177Z,26.27
2022-12-06T03:55:52.903Z,29.42
2022-12-06T03:58:19.700Z,27.08
2022-12-06T04:00:46.533Z,23.35
2022-12-06T04:03:13.539Z,24.25
2022-12-06T04:05:40.297Z,28.08
2022-12-06T04:08:07.036Z,28.83
2022-12-06T04:10:33.823Z,26.45
2022-12-06T04:13:00.549Z,24.55
2022-12-06T04:15:36.191Z,24.75
2022-12-06T04:18:13.317Z,24.85
2022-12-06T04:21:07.160Z,26.13
2022-12-06T04:23:39.010Z,21.33
2022-12-06T04:26:08.412Z,24.20
2022-12-06T04:29:05.783Z,23.20
2022-12-06T04:31:51.509Z,23.33
2022-12-06T04:34:36.896Z,23.95
2022-12-06T04:37:22.309Z,24.30
2022-12-06T04:39:49.376Z,23.27
2022-12-06T04:42:35.078Z,22.80
2022-12-06T04:45:01.782Z,20.13
2022-12-06T04:47:28.484Z,24.95
2022-12-06T04:49:55.179Z,23.67
2022-12-06T04:52:21.868Z,25.58
2022-12-06T04:54:48.559Z,21.70
2022-12-06T04:57:16.810Z,19.63
2022-12-06T04:59:46.146Z,23.65
2022-12-06T05:02:14.770Z,21.20
2022-12-06T05:04:41.604Z,22.42
2022-12-06T05:07:08.612Z,22.23
2022-12-06T05:09:35.331Z,20.58
2022-12-06T05:12:01.988Z,19.33
2022-12-06T05:14:28.748Z,22.48
2022-12-06T05:16:55.399Z,22.38
2022-12-06T05:19:22.072Z,23.63
2022-12-06T05:21:48.676Z,21.98
2022-12-06T05:24:15.368Z,22.98
2022-12-06T05:26:42.012Z,20.92
2022-12-06T05:29:08.683Z,22.38
2022-12-06T05:31:35.453Z,20.63
2022-12-06T05:34:02.200Z,24.30
2022-12-06T05:36:28.893Z,27.38
2022-12-06T05:38:57.056Z,24.95
2022-12-06T05:41:24.156Z,26.55
2022-12-06T05:43:51.403Z,24.23
2022-12-06T05:46:18.166Z,24.13
2022-12-06T05:48:44.971Z,23.52
2022-12-06T05:51:11.826Z,26.02
2022-12-06T05:53:39.074Z,19.58
2022-12-06T05:56:11.506Z,19.65
2022-12-06T05:58:38.649Z,25.23
2022-12-06T06:01:07.032Z,23.08
2022-12-06T06:03:34.254Z,21.95
2022-12-06T06:06:02.525Z,20.85
2022-12-06T06:08:30.031Z,20.73
2022-12-06T06:10:57.658Z,21.80
2022-12-06T06:13:24.466Z,23.48
2022-12-06T06:15:51.301Z,20.33
2022-12-06T06:18:19.373Z,24.50
2022-12-06T06:20:54.000Z,23.27
2022-12-06T06:23:21.746Z,24.45
2022-12-06T06:25:48.603Z,19.17
2022-12-06T06:28:16.610Z,23.63
2022-12-06T06:30:43.805Z,22.52
2022-12-06T06:33:10.941Z,20.38
2022-12-06T06:35:38.895Z,24.55
2022-12-06T06:38:06.018Z,27.90
2022-12-06T06:40:32.920Z,27.00
2022-12-06T06:43:17.944Z,27.55
2022-12-06T06:45:56.218Z,25.77
2022-12-06T06:48:24.098Z,23.70
2022-12-06T06:50:56.707Z,27.00
2022-12-06T06:53:25.086Z,27.55
2022-12-06T06:55:53.907Z,26.70
2022-12-06T06:58:20.625Z,24.80
2022-12-06T07:00:55.752Z,23.40
2022-12-06T07:03:23.103Z,24.55
2022-12-06T07:05:58.882Z,24.83
2022-12-06T07:08:26.551Z,26.23
2022-12-06T07:10:54.285Z,23.13
2022-12-06T07:13:22.646Z,23.17
2022-12-06T07:15:49.631Z,27.10
2022-12-06T07:18:17.337Z,23.13
2022-12-06T07:20:45.723Z,22.85
2022-12-06T07:23:13.145Z,25.83
2022-12-06T07:25:39.886Z,26.33
2022-12-06T07:28:06.862Z,23.55
2022-12-06T07:30:33.897Z,25.08
2022-12-06T07:33:00.655Z,23.13
2022-12-06T07:35:48.520Z,22.45
2022-12-06T07:38:13.983Z,20.05
2022-12-06T07:41:03.489Z,21.13
2022-12-06T07:43:46.078Z,20.88
2022-12-06T07:46:13.047Z,19.27
2022-12-06T07:48:39.880Z,16.65
2022-12-06T07:51:07.398Z,16.90
2022-12-06T07:53:34.172Z,19.55
2022-12-06T07:56:07.476Z,17.27
2022-12-06T07:58:34.202Z,16.50
2022-12-06T08:01:03.815Z,15.98
2022-12-06T08:03:30.732Z,19.85
2022-12-06T08:05:57.532Z,15.95
2022-12-06T08:08:28.557Z,17.38
2022-12-06T08:10:59.984Z,14.20
2022-12-06T08:13:26.899Z,15.80
2022-12-06T08:15:53.663Z,16.70
2022-12-06T08:18:20.370Z,13.60
2022-12-06T08:20:47.100Z,16.77
2022-12-06T08:23:13.902Z,13.95
2022-12-06T08:25:40.767Z,15.05
2022-12-06T08:28:07.621Z,13.88
2022-12-06T08:30:34.436Z,13.88
2022-12-06T08:33:01.208Z,13.27
2022-12-06T08:35:27.851Z,14.77
2022-12-06T08:37:54.511Z,14.07
2022-12-06T08:40:21.162Z,14.57
2022-12-06T08:42:48.018Z,14.57
2022-12-06T08:45:14.738Z,13.63
2022-12-06T08:47:41.386Z,15.60
2022-12-06T08:50:08.378Z,17.38
2022-12-06T08:52:35.058Z,15.70
2022-12-06T08:55:01.695Z,14.45
2022-12-06T08:57:28.363Z,13.88
2022-12-06T08:59:55.523Z,14.50
2022-12-06T09:02:22.253Z,13.40
2022-12-06T09:04:51.627Z,15.13
2022-12-06T09:07:19.124Z,12.90
2022-12-06T09:09:46.166Z,14.32
2022-12-06T09:12:13.556Z,13.95
2022-12-06T09:14:40.620Z,14.05
2022-12-06T09:17:07.370Z,12.85
2022-12-06T09:19:34.763Z,17.15
2022-12-06T09:22:01.675Z,15.52
2022-12-06T09:24:28.368Z,17.38
2022-12-06T09:26:55.098Z,13.13
2022-12-06T09:29:22.026Z,15.10
2022-12-06T09:31:48.979Z,14.40
2022-12-06T09:34:17.116Z,17.35
2022-12-06T09:36:57.245Z,15.40
2022-12-06T09:39:35.029Z,14.20
2022-12-06T09:43:02.088Z,14.35
2022-12-06T09:45:53.108Z,15.23
2022-12-06T09:48:48.859Z,14.48
2022-12-06T09:51:34.025Z,15.65
2022-12-06T09:54:34.440Z,17.02
2022-12-06T09:57:18.212Z,13.43
2022-12-06T10:00:02.776Z,15.35
2022-12-06T10:02:39.985Z,16.55
2022-12-06T10:05:23.210Z,12.88
2022-12-06T10:08:11.877Z,15.70
2022-12-06T10:10:57.516Z,12.35
2022-12-06T10:13:29.909Z,13.57
2022-12-06T11:09:40.129Z,11.73
2022-12-06T11:12:36.073Z,11.82
2022-12-06T11:15:17.273Z,10.00
2022-12-06T11:17:49.024Z,11.02
2022-12-06T11:20:21.907Z,10.23
2022-12-06T11:23:24.944Z,11.80
2022-12-06T11:26:20.493Z,11.65
2022-12-06T11:29:04.135Z,11.02
2022-12-06T11:31:43.515Z,11.50
2022-12-06T11:34:20.237Z,11.70
2022-12-06T11:36:55.267Z,10.18
2022-12-06T11:39:25.793Z,10.35
2022-12-06T11:41:56.098Z,9.02
2022-12-06T11:44:36.154Z,10.15
2022-12-06T11:47:03.246Z,10.23
2022-12-06T11:49:29.988Z,9.57
2022-12-06T11:51:59.620Z,18.13
2022-12-06T11:54:45.162Z,10.40
2022-12-06T11:57:22.899Z,8.95
2022-12-06T12:00:11.857Z,11.82
2022-12-06T12:02:38.943Z,10.30
2022-12-06T12:05:34.416Z,7.72
2022-12-06T12:08:17.958Z,7.57
2022-12-06T12:10:58.040Z,7.97
2022-12-06T12:13:43.698Z,7.85
2022-12-06T12:16:25.063Z,6.85
2022-12-06T12:19:04.381Z,7.82
2022-12-06T12:21:39.180Z,7.45
2022-12-06T12:24:27.895Z,9.75
2022-12-06T12:26:54.559Z,6.88
2022-12-06T12:29:22.143Z,8.23
2022-12-06T12:31:52.285Z,6.50
2022-12-06T12:34:21.319Z,6.93
2022-12-06T12:36:51.020Z,7.43
2022-12-06T12:39:53.206Z,6.93
2022-12-06T12:42:32.907Z,5.93
2022-12-06T12:45:02.883Z,8.00
2022-12-06T12:47:31.139Z,7.57
2022-12-06T12:50:01.709Z,6.95
2022-12-06T12:52:32.054Z,7.80
2022-12-06T12:55:17.886Z,6.93
2022-12-06T12:57:47.111Z,6.07
2022-12-06T13:00:42.856Z,7.68
2022-12-06T13:03:49.525Z,7.13
2022-12-06T13:06:06.114Z,7.22
2022-12-06T13:08:35.981Z,8.48
2022-12-06T13:11:06.089Z,7.45
2022-12-06T13:13:44.399Z,7.68
2022-12-06T13:16:14.962Z,6.97
2022-12-06T13:18:43.858Z,9.38
2022-12-06T13:21:30.124Z,7.20
2022-12-06T13:24:12.278Z,10.07
2022-12-06T13:26:41.882Z,10.57
2022-12-06T13:29:18.995Z,7.45
2022-12-06T13:31:48.010Z,8.95
2022-12-06T13:34:23.230Z,12.65
2022-12-06T13:36:52.226Z,9.90
2022-12-06T13:39:31.113Z,11.25
2022-12-06T13:42:18.047Z,13.93
2022-12-06T13:44:59.545Z,11.15
2022-12-06T13:47:29.404Z,12.50
2022-12-06T13:50:01.369Z,13.80
2022-12-06T13:52:43.144Z,11.60
2022-12-06T13:55:36.104Z,11.70
2022-12-06T13:58:02.704Z,12.63
2022-12-06T14:00:29.535Z,11.10
2022-12-06T14:02:56.386Z,14.38
2022-12-06T14:08:38.445Z,14.77
2022-12-06T14:11:09.352Z,16.25
2022-12-06T14:13:36.005Z,14.88
2022-12-06T14:16:04.154Z,15.15
2022-12-06T14:18:32.647Z,14.70
2022-12-06T14:21:00.288Z,13.20
2022-12-06T14:23:37.262Z,10.68
2022-12-06T14:26:19.667Z,13.15
2022-12-06T14:28:47.717Z,14.93
2022-12-06T14:31:36.427Z,13.52
2022-12-06T14:34:03.621Z,12.32
2022-12-06T14:36:33.917Z,13.35
2022-12-06T14:39:06.371Z,13.35
2022-12-06T14:41:57.664Z,11.07
2022-12-06T14:44:30.219Z,11.75
2022-12-06T14:46:58.141Z,18.02
2022-12-06T14:49:45.711Z,12.25
2022-12-06T14:52:29.049Z,13.75
2022-12-06T14:55:16.876Z,12.63
2022-12-06T14:57:54.689Z,11.50
2022-12-06T15:00:27.405Z,11.30
2022-12-06T15:03:15.502Z,11.03
2022-12-06T15:05:44.842Z,11.23
2022-12-06T15:08:39.215Z,16.17
2022-12-06T15:11:12.120Z,12.52
2022-12-06T15:13:41.765Z,12.40
2022-12-06T15:16:08.586Z,11.63
2022-12-06T15:18:40.748Z,12.55
2022-12-06T15:21:15.993Z,10.90
2022-12-06T15:23:54.087Z,10.68
2022-12-06T15:26:22.619Z,9.32
2022-12-06T15:28:50.083Z,9.73
2022-12-06T15:31:29.076Z,10.43
2022-12-06T15:33:56.372Z,11.88
2022-12-06T15:36:25.979Z,8.90
2022-12-06T15:38:52.900Z,10.77
2022-12-06T15:41:22.232Z,9.02
2022-12-06T15:43:50.306Z,10.50
2022-12-06T15:46:19.980Z,9.95
2022-12-06T15:48:47.120Z,8.90
2022-12-06T15:51:20.303Z,8.80
2022-12-06T15:53:48.646Z,8.23
2022-12-06T15:56:18.570Z,8.23
2022-12-06T15:58:46.828Z,9.40
2022-12-06T16:01:20.254Z,11.25
2022-12-06T16:03:47.671Z,8.57
2022-12-06T16:06:16.370Z,11.32
2022-12-06T16:08:43.935Z,10.70
2022-12-06T16:11:13.164Z,11.88
2022-12-06T16:13:40.253Z,10.93
2022-12-06T16:16:07.431Z,13.00
2022-12-06T16:18:34.712Z,12.90
2022-12-06T16:21:01.790Z,10.30
2022-12-06T16:24:12.670Z,10.55
2022-12-06T16:26:37.732Z,14.15
2022-12-06T16:29:07.136Z,13.63
2022-12-06T16:31:38.608Z,19.77
2022-12-06T16:34:05.954Z,15.70
2022-12-06T16:36:33.416Z,15.13
2022-12-06T16:39:03.730Z,15.95
2022-12-06T16:41:33.839Z,15.25
2022-12-06T16:44:01.624Z,14.23
2022-12-06T16:46:33.991Z,15.15
2022-12-06T16:49:44.185Z,16.23
2022-12-06T16:52:00.842Z,16.05
2022-12-06T16:54:27.616Z,15.98
2022-12-06T16:56:54.315Z,14.25
2022-12-06T16:59:21.033Z,13.13
2022-12-06T17:01:53.417Z,14.93
2022-12-06T17:04:20.273Z,13.50
2022-12-06T17:06:47.310Z,12.13
2022-12-06T17:09:14.732Z,14.75
2022-12-06T17:12:01.011Z,10.95
2022-12-06T17:14:27.857Z,12.73
2022-12-06T17:16:55.456Z,11.38
2022-12-06T17:19:24.268Z,11.32
2022-12-06T17:21:52.589Z,13.27
2022-12-06T17:24:20.642Z,10.80
2022-12-06T17:26:48.037Z,13.00
2022-12-06T17:29:14.792Z,14.43
2022-12-06T17:31:42.759Z,16.15
2022-12-06T17:34:13.011Z,15.23
2022-12-06T17:36:40.270Z,11.93
2022-12-06T17:39:07.871Z,16.02
2022-12-06T17:41:53.118Z,12.32
2022-12-06T17:44:20.487Z,14.60
2022-12-06T17:46:47.446Z,17.10
2022-12-06T17:49:17.495Z,13.20
2022-12-06T17:51:44.312Z,11.43
2022-12-06T17:54:11.361Z,13.02
2022-12-06T17:56:46.067Z,10.43
2022-12-06T17:59:21.447Z,10.30
2022-12-06T18:04:36.892Z,12.90
2022-12-06T18:07:03.608Z,12.23
2022-12-06T18:09:30.309Z,12.40
2022-12-06T18:11:56.992Z,10.35
2022-12-06T18:14:23.648Z,8.73
2022-12-06T18:16:50.549Z,13.30
2022-12-06T18:19:20.165Z,11.90
2022-12-06T18:21:47.776Z,11.27
2022-12-06T18:24:26.919Z,10.00
2022-12-06T18:26:55.799Z,9.02
2022-12-06T18:29:24.257Z,8.27
2022-12-06T18:31:52.003Z,7.40
2022-12-06T18:34:19.500Z,7.60
2022-12-06T18:36:46.682Z,6.80
2022-12-06T18:39:16.318Z,9.18
2022-12-06T18:41:46.302Z,9.00
2022-12-06T18:44:13.537Z,9.23
2022-12-06T18:46:42.469Z,7.07
2022-12-06T18:49:11.328Z,10.32
2022-12-06T18:51:39.159Z,9.07
2022-12-06T18:54:06.898Z,7.45
2022-12-06T18:56:34.397Z,10.38
2022-12-06T18:59:03.257Z,8.30
2022-12-06T19:01:32.822Z,7.72
2022-12-06T19:04:02.850Z,8.70
2022-12-06T19:06:32.266Z,8.25
2022-12-06T19:09:01.822Z,10.93
2022-12-06T19:11:28.864Z,8.43
2022-12-06T19:14:00.139Z,7.03
2022-12-06T19:16:30.454Z,9.30
2022-12-06T19:18:59.902Z,7.78
2022-12-06T19:21:27.206Z,7.82
2022-12-06T19:23:57.272Z,7.72
2022-12-06T19:26:25.809Z,8.27
2022-12-06T19:28:53.293Z,7.55
2022-12-06T19:31:22.870Z,10.32
2022-12-06T19:33:56.217Z,8.70
2022-12-06T19:36:25.128Z,8.05
2022-12-06T19:39:00.086Z,9.15
2022-12-06T19:41:27.644Z,9.63
2022-12-06T19:44:12.889Z,12.85
2022-12-06T19:46:42.877Z,11.60
2022-12-06T19:49:10.540Z,12.63
2022-12-06T19:51:42.349Z,13.38
2022-12-06T19:54:10.714Z,14.60
2022-12-06T19:56:39.258Z,14.70
2022-12-06T19:59:13.067Z,14.90
2022-12-06T20:01:43.023Z,17.08
2022-12-06T20:04:14.881Z,14.38
2022-12-06T20:06:41.860Z,24.08
2022-12-06T20:09:08.650Z,17.55
2022-12-06T20:11:56.011Z,15.98
2022-12-06T20:14:22.999Z,18.00
2022-12-06T20:16:50.709Z,16.88
2022-12-06T20:19:17.874Z,15.73
2022-12-06T20:21:45.238Z,20.23
2022-12-06T20:24:13.754Z,20.63
2022-12-06T20:26:40.615Z,17.30
2022-12-06T20:29:07.924Z,18.45
2022-12-06T20:31:35.655Z,18.23
2022-12-06T20:34:05.729Z,17.45
2022-12-06T20:36:35.223Z,17.92
2022-12-06T20:39:02.348Z,18.15
2022-12-06T20:41:31.536Z,17.30
2022-12-06T20:43:58.943Z,17.77
2022-12-06T20:46:30.991Z,19.35
2022-12-06T20:49:03.539Z,18.27
2022-12-06T20:51:31.344Z,19.33
2022-12-06T20:54:01.075Z,16.65
2022-12-06T20:56:31.026Z,17.40
2022-12-06T20:58:59.905Z,16.85
2022-12-06T21:01:34.173Z,18.85
2022-12-06T21:04:01.226Z,16.40
2022-12-06T21:06:27.961Z,20.63
2022-12-06T21:08:55.325Z,19.13
2022-12-06T21:11:24.440Z,19.48
2022-12-06T21:13:54.823Z,25.00
2022-12-06T21:16:27.771Z,19.67
2022-12-06T21:19:01.056Z,20.85
2022-12-06T21:21:30.694Z,23.63
2022-12-06T21:24:01.831Z,21.17
2022-12-06T21:26:29.619Z,21.95
2022-12-06T21:28:56.792Z,20.58
2022-12-06T21:31:32.752Z,19.85
2022-12-06T21:34:01.829Z,21.35
2022-12-06T21:36:28.585Z,20.60
2022-12-06T21:38:55.434Z,17.33
2022-12-06T21:41:22.385Z,19.77
2022-12-06T21:43:49.800Z,19.67
2022-12-06T21:46:19.629Z,18.52
2022-12-06T21:48:57.918Z,21.08
2022-12-06T21:51:27.597Z,19.85
2022-12-06T21:53:54.936Z,20.98
2022-12-06T21:56:24.154Z,20.25
2022-12-06T21:58:51.363Z,18.35
2022-12-06T22:01:27.934Z,18.73
2022-12-06T22:03:58.028Z,19.52
2022-12-06T22:06:24.904Z,23.33
2022-12-06T22:08:57.786Z,18.88
2022-12-06T22:11:24.575Z,22.10
2022-12-06T22:13:51.259Z,21.75
2022-12-06T22:16:19.269Z,21.45
2022-12-06T22:18:46.537Z,18.83
2022-12-06T22:21:17.454Z,19.08
2022-12-06T22:23:44.748Z,21.65
2022-12-06T22:26:14.938Z,16.33
2022-12-06T22:28:41.755Z,15.20
2022-12-06T22:31:13.839Z,16.48
2022-12-06T22:33:41.263Z,15.20
2022-12-06T22:36:09.467Z,14.35
2022-12-06T22:38:36.584Z,15.65
2022-12-06T22:41:03.778Z,16.85
2022-12-06T22:43:31.064Z,14.88
2022-12-06T22:46:04.937Z,14.45
2022-12-06T22:48:31.818Z,13.05
2022-12-06T22:51:22.344Z,15.23
2022-12-06T22:53:54.297Z,14.45
2022-12-06T22:56:21.124Z,13.77
2022-12-06T22:58:48.360Z,14.98
2022-12-06T23:01:17.704Z,17.42
2022-12-06T23:03:46.023Z,16.35
2022-12-06T23:06:14.563Z,14.55
2022-12-06T23:08:42.195Z,14.82
2022-12-06T23:11:21.146Z,15.77
2022-12-06T23:13:48.099Z,19.90
2022-12-06T23:16:16.858Z,19.60
2022-12-06T23:18:44.519Z,16.88
2022-12-06T23:21:11.126Z,16.23
2022-12-06T23:23:39.553Z,16.23
2022-12-06T23:26:11.681Z,17.23
2022-12-06T23:28:38.951Z,14.15
2022-12-06T23:31:13.174Z,13.88
2022-12-06T23:36:13.082Z,14.70
2022-12-06T23:38:39.986Z,13.80
2022-12-06T23:41:09.655Z,12.73
2022-12-06T23:43:37.152Z,9.27
2022-12-06T23:46:07.637Z,10.23
2022-12-06T23:48:35.295Z,10.73
2022-12-06T23:51:04.770Z,9.18
2022-12-06T23:53:32.170Z,7.10
2022-12-06T23:56:13.343Z,9.60
2022-12-06T23:58:40.709Z,9.25
